createdAt,value
2018-07-28T00:00:07.421Z,60.46
2018-07-28T00:02:36.585Z,60.44
2018-07-28T00:05:06.828Z,61.29
2018-07-28T00:07:36.130Z,60.49
2018-07-28T00:10:09.226Z,61.28
2018-07-28T00:12:38.615Z,61.04
2018-07-28T00:15:11.060Z,60.73
2018-07-28T00:17:40.999Z,61.42
2018-07-28T00:20:11.536Z,62.19
2018-07-28T00:22:40.768Z,61.93
2018-07-28T00:25:11.772Z,62.54
2018-07-28T00:27:40.987Z,62.20
2018-07-28T00:30:12.385Z,62.97
2018-07-28T00:32:41.697Z,62.42
2018-07-28T00:35:10.869Z,63.10
2018-07-28T00:37:40.062Z,63.71
2018-07-28T00:40:09.422Z,63.65
2018-07-28T00:42:38.916Z,63.64
2018-07-28T00:45:08.649Z,63.57
2018-07-28T00:47:37.812Z,63.92
2018-07-28T00:50:08.560Z,64.16
2018-07-28T00:52:37.672Z,64.33
2018-07-28T00:55:07.661Z,64.23
2018-07-28T00:57:36.819Z,64.34
2018-07-28T01:00:08.055Z,64.33
2018-07-28T01:02:37.225Z,64.76
2018-07-28T01:05:07.125Z,64.77
2018-07-28T01:07:36.060Z,64.60
2018-07-28T01:10:06.379Z,65.26
2018-07-28T01:12:35.568Z,65.28
2018-07-28T01:15:06.999Z,65.03
2018-07-28T01:17:36.177Z,65.88
2018-07-28T01:20:07.053Z,65.54
2018-07-28T01:22:36.237Z,66.02
2018-07-28T01:25:06.548Z,66.63
2018-07-28T01:27:35.716Z,66.44
2018-07-28T01:30:07.514Z,66.82
2018-07-28T01:32:36.709Z,67.60
2018-07-28T01:35:06.910Z,67.21
2018-07-28T01:37:36.089Z,67.13
2018-07-28T01:40:05.963Z,66.64
2018-07-28T01:42:35.129Z,66.70
2018-07-28T01:45:04.935Z,67.10
2018-07-28T01:47:33.874Z,67.00
2018-07-28T01:50:03.040Z,67.06
2018-07-28T01:52:32.209Z,67.27
2018-07-28T01:55:01.367Z,67.43
2018-07-28T01:57:30.529Z,68.11
2018-07-28T01:59:59.813Z,68.10
2018-07-28T02:02:28.764Z,67.56
2018-07-28T02:04:57.957Z,68.28
2018-07-28T02:07:27.132Z,68.25
2018-07-28T02:09:56.294Z,69.01
2018-07-28T02:12:25.467Z,68.78
2018-07-28T02:14:54.655Z,68.91
2018-07-28T02:17:23.831Z,69.09
2018-07-28T02:19:52.989Z,69.47
2018-07-28T02:22:22.160Z,70.29
2018-07-28T02:24:51.485Z,69.32
2018-07-28T02:27:20.656Z,68.90
2018-07-28T02:29:49.819Z,69.22
2018-07-28T02:32:18.980Z,69.08
2018-07-28T02:34:48.141Z,69.38
2018-07-28T02:37:17.308Z,69.21
2018-07-28T02:39:46.459Z,69.21
2018-07-28T02:42:15.631Z,68.85
2018-07-28T02:44:44.801Z,69.54
2018-07-28T02:47:13.961Z,70.10
2018-07-28T02:49:43.157Z,70.57
2018-07-28T02:52:12.324Z,70.96
2018-07-28T02:54:41.569Z,71.02
2018-07-28T02:57:10.748Z,70.57
2018-07-28T02:59:39.916Z,70.03
2018-07-28T03:02:09.089Z,70.10
2018-07-28T03:04:38.257Z,70.50
2018-07-28T03:07:07.954Z,70.57
2018-07-28T03:09:37.120Z,71.10
2018-07-28T03:12:06.564Z,71.01
2018-07-28T03:14:35.734Z,71.50
2018-07-28T03:17:05.014Z,70.18
2018-07-28T03:19:34.188Z,70.31
2018-07-28T03:22:03.378Z,70.72
2018-07-28T03:24:32.547Z,70.36
2018-07-28T03:27:01.704Z,71.26
2018-07-28T03:29:30.878Z,71.42
2018-07-28T03:32:00.044Z,71.36
2018-07-28T03:34:29.215Z,70.89
2018-07-28T03:36:58.376Z,70.18
2018-07-28T03:39:27.544Z,70.58
2018-07-28T03:41:56.704Z,70.23
2018-07-28T03:44:25.872Z,70.75
2018-07-28T03:46:55.033Z,70.76
2018-07-28T03:49:24.277Z,71.62
2018-07-28T03:51:53.131Z,71.52
2018-07-28T03:54:22.296Z,72.10
2018-07-28T03:56:51.461Z,71.76
2018-07-28T03:59:20.628Z,72.32
2018-07-28T04:01:49.792Z,72.01
2018-07-28T04:04:19.105Z,72.57
2018-07-28T04:06:48.147Z,72.30
2018-07-28T04:09:17.312Z,72.18
2018-07-28T04:11:46.478Z,72.04
2018-07-28T04:14:15.656Z,71.78
2018-07-28T04:16:44.822Z,71.81
2018-07-28T04:19:13.983Z,72.04
2018-07-28T04:21:43.152Z,71.90
2018-07-28T04:24:12.328Z,72.44
2018-07-28T04:26:41.492Z,72.62
2018-07-28T04:29:10.673Z,72.28
2018-07-28T04:31:39.845Z,71.98
2018-07-28T04:34:09.054Z,71.86
2018-07-28T04:36:38.241Z,71.07
2018-07-28T04:39:11.285Z,70.81
2018-07-28T04:41:40.829Z,71.43
2018-07-28T04:44:10.335Z,72.18
2018-07-28T04:46:39.513Z,71.57
2018-07-28T04:49:09.042Z,71.72
2018-07-28T04:51:38.342Z,72.55
2018-07-28T04:54:07.503Z,72.43
2018-07-28T04:56:36.688Z,71.18
2018-07-28T04:59:05.863Z,71.24
2018-07-28T05:01:35.038Z,71.05
2018-07-28T05:04:04.196Z,71.08
2018-07-28T05:06:33.377Z,70.68
2018-07-28T05:09:02.548Z,69.83
2018-07-28T05:11:31.713Z,70.17
2018-07-28T05:14:00.897Z,70.21
2018-07-28T05:16:29.840Z,70.71
2018-07-28T05:18:59.008Z,70.44
2018-07-28T05:21:28.197Z,70.08
2018-07-28T05:23:57.372Z,70.80
2018-07-28T05:26:26.548Z,70.67
2018-07-28T05:28:55.722Z,69.58
2018-07-28T05:31:24.896Z,69.46
2018-07-28T05:33:54.080Z,68.70
2018-07-28T05:36:23.265Z,68.64
2018-07-28T05:38:52.245Z,68.63
2018-07-28T05:41:21.392Z,67.64
2018-07-28T05:43:50.720Z,67.24
2018-07-28T05:46:19.895Z,67.69
2018-07-28T05:48:49.082Z,67.39
2018-07-28T05:51:18.285Z,67.67
2018-07-28T05:53:47.477Z,67.74
2018-07-28T05:56:16.661Z,66.75
2018-07-28T05:58:45.834Z,66.30
2018-07-28T06:01:15.021Z,64.79
2018-07-28T06:03:44.193Z,64.03
2018-07-28T06:06:13.380Z,63.58
2018-07-28T06:08:42.556Z,63.26
2018-07-28T06:11:11.745Z,64.24
2018-07-28T06:13:40.916Z,63.88
2018-07-28T06:16:10.109Z,62.55
2018-07-28T06:18:39.287Z,62.66
2018-07-28T06:21:08.473Z,62.52
2018-07-28T06:23:37.654Z,62.22
2018-07-28T06:26:06.861Z,61.62
2018-07-28T06:28:36.038Z,62.26
2018-07-28T06:31:05.253Z,61.56
2018-07-28T06:33:34.424Z,60.62
2018-07-28T06:36:03.634Z,60.73
2018-07-28T06:38:32.817Z,60.15
2018-07-28T06:41:01.977Z,59.39
2018-07-28T06:43:31.148Z,58.76
2018-07-28T06:46:00.326Z,58.95
2018-07-28T06:48:29.521Z,58.47
2018-07-28T06:50:58.691Z,57.82
2018-07-28T06:53:27.869Z,57.59
2018-07-28T06:55:57.049Z,57.15
2018-07-28T06:58:26.458Z,57.18
2018-07-28T07:00:55.597Z,56.35
2018-07-28T07:03:24.775Z,56.56
2018-07-28T07:05:53.945Z,56.80
2018-07-28T07:08:23.117Z,56.36
2018-07-28T07:10:52.285Z,56.29
2018-07-28T07:13:21.456Z,54.98
2018-07-28T07:15:50.636Z,54.66
2018-07-28T07:18:19.838Z,54.63
2018-07-28T07:20:49.027Z,54.44
2018-07-28T07:23:18.237Z,53.73
2018-07-28T07:25:47.405Z,53.75
2018-07-28T07:28:16.579Z,53.82
2018-07-28T07:30:45.784Z,52.31
2018-07-28T07:33:14.951Z,53.41
2018-07-28T07:35:44.116Z,52.95
2018-07-28T07:38:13.308Z,52.15
2018-07-28T07:40:42.532Z,52.38
2018-07-28T07:43:11.639Z,52.06
2018-07-28T07:45:40.837Z,50.68
2018-07-28T07:48:10.049Z,51.17
2018-07-28T07:50:39.246Z,50.15
2018-07-28T07:53:08.412Z,50.47
2018-07-28T07:55:37.607Z,49.20
2018-07-28T07:58:06.789Z,49.56
2018-07-28T08:00:35.948Z,49.43
2018-07-28T08:03:05.257Z,48.60
2018-07-28T08:05:34.479Z,50.42
2018-07-28T08:08:03.688Z,50.09
2018-07-28T08:10:32.875Z,49.70
2018-07-28T08:13:02.083Z,50.30
2018-07-28T08:15:31.275Z,49.30
2018-07-28T08:18:00.474Z,49.58
2018-07-28T08:20:29.725Z,50.01
2018-07-28T08:22:58.929Z,49.78
2018-07-28T08:25:28.130Z,48.43
2018-07-28T08:27:57.331Z,47.46
2018-07-28T08:30:26.513Z,47.78
2018-07-28T08:32:55.711Z,47.54
2018-07-28T08:35:24.895Z,47.95
2018-07-28T08:37:54.183Z,47.37
2018-07-28T08:40:25.323Z,48.05
2018-07-28T08:42:54.614Z,47.87
2018-07-28T08:45:23.826Z,47.42
2018-07-28T08:47:53.346Z,47.08
2018-07-28T08:50:22.562Z,46.85
2018-07-28T08:52:51.771Z,46.13
2018-07-28T08:55:21.010Z,46.90
2018-07-28T08:57:50.621Z,45.66
2018-07-28T09:00:19.809Z,45.20
2018-07-28T09:02:49.014Z,44.39
2018-07-28T09:05:18.206Z,45.19
2018-07-28T09:07:47.639Z,43.52
2018-07-28T09:10:16.835Z,43.64
2018-07-28T09:12:46.046Z,43.03
2018-07-28T09:15:15.241Z,43.71
2018-07-28T09:17:44.441Z,42.77
2018-07-28T09:20:13.649Z,43.84
2018-07-28T09:22:42.862Z,43.33
2018-07-28T09:25:12.088Z,43.83
2018-07-28T09:27:41.282Z,42.47
2018-07-28T09:30:10.507Z,41.90
2018-07-28T09:32:39.715Z,41.24
2018-07-28T09:35:08.922Z,41.90
2018-07-28T09:37:38.169Z,42.31
2018-07-28T09:40:07.332Z,41.87
2018-07-28T09:42:36.537Z,41.36
2018-07-28T09:45:06.562Z,40.42
2018-07-28T09:47:35.746Z,41.52
2018-07-28T09:50:05.536Z,41.61
2018-07-28T09:52:34.826Z,41.01
2018-07-28T09:55:04.081Z,39.72
2018-07-28T09:57:33.355Z,39.88
2018-07-28T10:00:02.575Z,39.68
2018-07-28T10:02:31.820Z,39.58
2018-07-28T10:05:00.829Z,39.35
2018-07-28T10:07:30.401Z,38.57
2018-07-28T10:09:59.630Z,37.88
2018-07-28T10:12:28.903Z,37.82
2018-07-28T10:14:58.140Z,38.75
2018-07-28T10:17:27.448Z,38.22
2018-07-28T10:19:56.688Z,37.99
2018-07-28T10:22:25.880Z,37.33
2018-07-28T10:24:55.151Z,37.22
2018-07-28T10:27:24.376Z,37.83
2018-07-28T10:29:53.632Z,36.49
2018-07-28T10:32:22.897Z,36.98
2018-07-28T10:34:51.866Z,38.73
2018-07-28T10:37:21.042Z,37.60
2018-07-28T10:39:50.216Z,37.57
2018-07-28T10:42:19.424Z,37.54
2018-07-28T10:44:48.664Z,37.02
2018-07-28T10:47:17.893Z,37.35
2018-07-28T10:49:47.074Z,36.23
2018-07-28T10:52:16.010Z,36.44
2018-07-28T10:54:49.181Z,35.23
2018-07-28T10:57:20.301Z,36.29
2018-07-28T10:59:49.487Z,34.44
2018-07-28T11:02:18.682Z,34.14
2018-07-28T11:04:47.860Z,34.97
2018-07-28T11:07:17.518Z,34.19
2018-07-28T11:09:46.701Z,33.93
2018-07-28T11:12:15.872Z,34.25
2018-07-28T11:14:45.046Z,34.40
2018-07-28T11:17:14.208Z,34.04
2018-07-28T11:19:43.392Z,34.62
2018-07-28T11:22:12.564Z,32.71
2018-07-28T11:24:41.745Z,32.60
2018-07-28T11:27:10.942Z,30.88
2018-07-28T11:29:40.132Z,31.39
2018-07-28T11:32:26.421Z,28.79
2018-07-28T11:35:12.853Z,30.07
2018-07-28T11:38:36.348Z,30.24
2018-07-28T11:41:16.960Z,31.31
2018-07-28T11:44:03.415Z,30.64
2018-07-28T11:46:32.676Z,33.35
2018-07-28T11:49:02.547Z,32.62
2018-07-28T11:51:31.942Z,33.02
2018-07-28T11:54:01.222Z,33.14
2018-07-28T11:56:30.294Z,31.62
2018-07-28T11:58:59.540Z,33.47
2018-07-28T12:01:28.830Z,33.46
2018-07-28T12:03:58.136Z,31.83
2018-07-28T12:06:27.461Z,32.76
2018-07-28T12:08:56.717Z,33.42
2018-07-28T12:11:26.046Z,33.67
2018-07-28T12:13:55.316Z,32.01
2018-07-28T12:16:24.343Z,32.29
2018-07-28T12:18:53.634Z,30.63
2018-07-28T12:21:22.933Z,28.64
2018-07-28T12:23:52.334Z,28.80
2018-07-28T12:26:21.554Z,29.75
2018-07-28T12:28:50.830Z,29.23
2018-07-28T12:31:20.079Z,31.14
2018-07-28T12:33:49.322Z,31.71
2018-07-28T12:36:18.559Z,31.04
2018-07-28T12:38:47.795Z,30.64
2018-07-28T12:41:17.104Z,28.49
2018-07-28T12:43:46.388Z,29.86
2018-07-28T12:46:15.632Z,29.61
2018-07-28T12:48:44.910Z,29.73
2018-07-28T12:51:14.173Z,30.29
2018-07-28T12:53:43.445Z,31.97
2018-07-28T12:56:12.764Z,31.73
2018-07-28T12:58:41.983Z,32.16
2018-07-28T13:01:11.234Z,32.06
2018-07-28T13:03:40.640Z,31.39
2018-07-28T13:06:09.915Z,32.01
2018-07-28T13:08:39.230Z,31.04
2018-07-28T13:11:08.483Z,32.49
2018-07-28T13:13:37.746Z,30.08
2018-07-28T13:16:07.336Z,29.10
2018-07-28T13:18:36.591Z,29.57
2018-07-28T13:21:05.882Z,29.80
2018-07-28T13:23:35.213Z,30.04
2018-07-28T13:26:04.405Z,27.10
2018-07-28T13:28:33.643Z,27.28
2018-07-28T13:31:02.935Z,27.18
2018-07-28T13:33:32.234Z,26.41
2018-07-28T13:36:01.499Z,25.86
2018-07-28T13:38:30.545Z,28.83
2018-07-28T13:40:59.829Z,28.53
2018-07-28T13:43:29.110Z,28.33
2018-07-28T13:45:58.398Z,28.90
2018-07-28T13:48:27.662Z,28.27
2018-07-28T13:50:56.911Z,29.27
2018-07-28T13:53:26.233Z,30.10
2018-07-28T13:55:55.467Z,29.48
2018-07-28T13:58:24.742Z,27.32
2018-07-28T14:00:54.087Z,29.27
2018-07-28T14:03:23.102Z,30.74
2018-07-28T14:05:52.397Z,28.69
2018-07-28T14:08:21.664Z,26.77
2018-07-28T14:10:50.948Z,25.51
2018-07-28T14:13:20.194Z,25.62
2018-07-28T14:15:49.453Z,25.52
2018-07-28T14:18:18.845Z,23.40
2018-07-28T14:20:48.054Z,26.46
2018-07-28T14:23:17.339Z,25.23
2018-07-28T14:25:46.575Z,25.78
2018-07-28T14:28:15.866Z,25.27
2018-07-28T14:30:45.188Z,27.72
2018-07-28T14:33:14.444Z,25.49
2018-07-28T14:35:43.692Z,26.13
2018-07-28T14:38:12.992Z,26.97
2018-07-28T14:40:42.251Z,25.37
2018-07-28T14:43:11.540Z,26.62
2018-07-28T14:45:40.804Z,27.42
2018-07-28T14:48:10.065Z,26.89
2018-07-28T14:50:39.060Z,27.30
2018-07-28T14:53:08.717Z,28.88
2018-07-28T14:55:37.959Z,30.70
2018-07-28T14:58:07.333Z,30.94
2018-07-28T15:00:36.585Z,31.43
2018-07-28T15:03:05.830Z,29.10
2018-07-28T15:05:35.078Z,29.20
2018-07-28T15:08:04.327Z,30.95
2018-07-28T15:10:33.576Z,31.15
2018-07-28T15:13:02.818Z,29.92
2018-07-28T15:15:32.060Z,31.77
2018-07-28T15:18:01.325Z,30.76
2018-07-28T15:20:30.566Z,30.62
2018-07-28T15:22:59.802Z,32.89
2018-07-28T15:25:29.032Z,37.37
2018-07-28T15:27:58.283Z,37.14
2018-07-28T15:30:27.542Z,38.46
2018-07-28T15:32:56.807Z,38.76
2018-07-28T15:35:26.026Z,53.34
2018-07-28T15:37:55.339Z,65.27
2018-07-28T15:40:24.615Z,62.36
2018-07-28T15:42:53.923Z,56.78
2018-07-28T15:45:23.213Z,51.87
2018-07-28T15:47:52.726Z,51.22
2018-07-28T15:50:21.940Z,45.29
2018-07-28T15:52:51.188Z,44.05
2018-07-28T15:55:20.449Z,43.52
2018-07-28T15:57:49.685Z,44.39
2018-07-28T16:00:19.597Z,43.92
2018-07-28T16:02:49.923Z,44.44
2018-07-28T16:05:19.154Z,44.79
2018-07-28T16:07:49.134Z,46.43
2018-07-28T16:10:18.381Z,45.66
2018-07-28T16:12:47.615Z,45.66
2018-07-28T16:15:16.850Z,47.23
2018-07-28T16:17:46.094Z,46.51
2018-07-28T16:20:15.172Z,47.42
2018-07-28T16:22:44.366Z,47.05
2018-07-28T16:25:13.685Z,47.50
2018-07-28T16:27:42.950Z,46.97
2018-07-28T16:30:12.202Z,47.83
2018-07-28T16:32:41.497Z,48.48
2018-07-28T16:35:10.760Z,49.08
2018-07-28T16:37:40.067Z,50.16
2018-07-28T16:40:09.111Z,50.35
2018-07-28T16:42:38.375Z,50.82
2018-07-28T16:45:07.862Z,50.97
2018-07-28T16:47:37.101Z,51.86
2018-07-28T16:50:06.385Z,51.88
2018-07-28T16:52:35.633Z,51.50
2018-07-28T16:55:05.047Z,52.97
2018-07-28T16:57:34.297Z,52.47
2018-07-28T17:00:03.547Z,54.43
2018-07-28T17:02:32.798Z,55.08
2018-07-28T17:05:02.054Z,55.63
2018-07-28T17:07:31.381Z,56.74
2018-07-28T17:10:01.418Z,58.08
2018-07-28T17:12:30.714Z,60.03
2018-07-28T17:14:59.978Z,63.37
2018-07-28T17:17:29.256Z,64.51
2018-07-28T17:19:58.507Z,65.87
2018-07-28T17:22:27.826Z,61.51
2018-07-28T17:24:57.059Z,61.78
2018-07-28T17:27:26.283Z,63.54
2018-07-28T17:29:55.547Z,63.76
2018-07-28T17:32:24.895Z,64.13
2018-07-28T17:34:54.100Z,63.41
2018-07-28T17:37:23.371Z,67.05
2018-07-28T17:39:52.671Z,66.08
2018-07-28T17:42:21.950Z,65.53
2018-07-28T17:44:51.232Z,65.77
2018-07-28T17:47:20.467Z,65.88
2018-07-28T17:49:49.712Z,66.50
2018-07-28T17:52:18.949Z,67.52
2018-07-28T17:54:48.193Z,67.18
2018-07-28T17:57:17.511Z,67.48
2018-07-28T17:59:46.766Z,66.82
2018-07-28T18:02:16.015Z,65.91
2018-07-28T18:04:45.265Z,66.08
2018-07-28T18:07:14.509Z,65.10
2018-07-28T18:09:43.767Z,61.37
2018-07-28T18:12:12.777Z,64.13
2018-07-28T18:14:42.039Z,66.96
2018-07-28T18:17:11.341Z,63.06
2018-07-28T18:19:40.760Z,61.20
2018-07-28T18:22:10.198Z,62.42
2018-07-28T18:24:39.487Z,67.14
2018-07-28T18:27:08.787Z,63.92
2018-07-28T18:29:38.047Z,67.75
2018-07-28T18:32:07.329Z,65.97
2018-07-28T18:34:36.602Z,64.63
2018-07-28T18:37:05.876Z,65.19
2018-07-28T18:39:35.218Z,66.50
2018-07-28T18:42:04.500Z,64.98
2018-07-28T18:44:33.770Z,67.56
2018-07-28T18:47:03.035Z,64.82
2018-07-28T18:49:32.317Z,62.84
2018-07-28T18:52:01.596Z,65.17
2018-07-28T18:54:30.881Z,66.12
2018-07-28T18:57:00.162Z,62.56
2018-07-28T18:59:29.417Z,63.44
2018-07-28T19:01:58.680Z,64.36
2018-07-28T19:04:27.992Z,63.23
2018-07-28T19:06:57.261Z,64.99
2018-07-28T19:09:31.601Z,63.25
2018-07-28T19:12:00.850Z,63.15
2018-07-28T19:14:34.655Z,64.89
2018-07-28T19:17:03.959Z,64.39
2018-07-28T19:19:33.216Z,64.35
2018-07-28T19:22:02.393Z,65.75
2018-07-28T19:24:31.582Z,66.55
2018-07-28T19:27:00.752Z,65.32
2018-07-28T19:29:35.232Z,66.44
2018-07-28T19:32:04.417Z,66.42
2018-07-28T19:34:33.604Z,63.63
2018-07-28T19:37:08.161Z,62.81
2018-07-28T19:39:37.345Z,62.79
2018-07-28T19:42:11.769Z,61.69
2018-07-28T19:44:40.952Z,61.78
2018-07-28T19:47:10.121Z,62.13
2018-07-28T19:49:39.324Z,61.88
2018-07-28T19:52:08.504Z,60.71
2018-07-28T19:54:37.747Z,61.04
2018-07-28T19:57:07.095Z,60.47
2018-07-28T19:59:36.399Z,60.78
2018-07-28T20:02:05.615Z,61.04
2018-07-28T20:04:34.993Z,61.55
2018-07-28T20:07:04.270Z,61.01
2018-07-28T20:09:33.526Z,60.91
2018-07-28T20:12:02.809Z,61.06
2018-07-28T20:14:32.073Z,61.25
2018-07-28T20:17:01.330Z,61.08
2018-07-28T20:19:30.618Z,61.29
2018-07-28T20:21:59.976Z,61.45
2018-07-28T20:24:29.221Z,61.42
2018-07-28T20:26:58.582Z,61.90
2018-07-28T20:29:27.791Z,61.99
2018-07-28T20:31:56.909Z,61.93
2018-07-28T20:34:25.848Z,62.42
2018-07-28T20:36:55.138Z,62.29
2018-07-28T20:39:24.370Z,62.49
2018-07-28T20:41:53.612Z,63.11
2018-07-28T20:44:22.913Z,62.44
2018-07-28T20:46:52.243Z,63.02
2018-07-28T20:49:21.451Z,63.30
2018-07-28T20:51:50.585Z,63.36
2018-07-28T20:54:19.882Z,63.53
2018-07-28T20:56:49.217Z,63.77
2018-07-28T20:59:18.458Z,63.72
2018-07-28T21:01:47.751Z,64.18
2018-07-28T21:04:17.002Z,63.97
2018-07-28T21:06:46.199Z,64.05
2018-07-28T21:09:15.356Z,65.00
2018-07-28T21:11:44.544Z,64.85
2018-07-28T21:14:13.717Z,64.74
2018-07-28T21:16:42.937Z,64.97
2018-07-28T21:19:12.284Z,64.49
2018-07-28T21:21:41.683Z,64.66
2018-07-28T21:24:11.108Z,64.57
2018-07-28T21:26:40.350Z,64.61
2018-07-28T21:29:09.568Z,64.58
2018-07-28T21:31:38.760Z,64.48
2018-07-28T21:34:08.100Z,64.96
2018-07-28T21:36:37.295Z,64.91
2018-07-28T21:39:09.913Z,65.52
2018-07-28T21:41:39.569Z,66.00
2018-07-28T21:44:08.791Z,65.22
2018-07-28T21:46:38.065Z,66.12
2018-07-28T21:49:07.371Z,65.61
2018-07-28T21:51:36.793Z,65.75
2018-07-28T21:54:06.040Z,65.94
2018-07-28T21:56:35.043Z,65.40
2018-07-28T21:59:04.376Z,64.91
2018-07-28T22:01:33.722Z,65.20
2018-07-28T22:04:03.438Z,65.28
2018-07-28T22:06:34.559Z,65.02
2018-07-28T22:09:04.271Z,66.09
2018-07-28T22:11:33.249Z,65.51
2018-07-28T22:14:02.440Z,66.34
2018-07-28T22:16:31.868Z,65.94
2018-07-28T22:19:01.146Z,67.60
2018-07-28T22:21:30.505Z,67.17
2018-07-28T22:23:59.719Z,67.02
2018-07-28T22:26:29.000Z,66.95
2018-07-28T22:28:58.323Z,67.36
2018-07-28T22:31:27.654Z,68.03
2018-07-28T22:33:57.057Z,68.69
2018-07-28T22:36:26.397Z,68.53
2018-07-28T22:38:56.022Z,68.02
2018-07-28T22:41:25.245Z,67.55
2018-07-28T22:43:54.685Z,67.79
2018-07-28T22:46:23.851Z,67.41
2018-07-28T22:48:53.034Z,67.73
2018-07-28T22:51:22.266Z,67.49
2018-07-28T22:53:51.473Z,66.97
2018-07-28T22:56:20.652Z,67.16
2018-07-28T22:58:49.840Z,67.66
2018-07-28T23:01:19.152Z,67.31
2018-07-28T23:03:48.542Z,67.72
2018-07-28T23:06:18.058Z,67.12
2018-07-28T23:08:47.356Z,66.72
2018-07-28T23:11:16.556Z,67.74
2018-07-28T23:13:46.019Z,66.80
2018-07-28T23:16:15.233Z,67.03
2018-07-28T23:18:44.518Z,67.10
2018-07-28T23:21:13.701Z,67.11
2018-07-28T23:23:42.921Z,67.39
2018-07-28T23:26:12.244Z,67.47
2018-07-28T23:28:41.445Z,67.43
2018-07-28T23:31:10.661Z,66.93
2018-07-28T23:33:39.856Z,66.38
2018-07-28T23:36:09.084Z,66.25
2018-07-28T23:38:38.292Z,66.23
2018-07-28T23:41:08.357Z,66.17
2018-07-28T23:43:37.537Z,66.17
2018-07-28T23:46:06.740Z,65.30
2018-07-28T23:48:35.933Z,65.09
2018-07-28T23:51:05.105Z,65.83
2018-07-28T23:53:34.300Z,65.72
2018-07-28T23:56:03.486Z,65.71
2018-07-28T23:58:32.445Z,66.17
